Hébergeur de fichiers indépendant

A 20140309 114643 MDB.gpx

À propos

Type de fichier
Fichier GPX de 1 Mo (application/xml)
Confidentialité
Fichier public, envoyé le 13 mars 2014 à 16:16, depuis l'adresse IP 85.201.x.x (Belgique)
Sécurité
Ne contient aucun Virus ou Malware connus - Dernière vérification: 02/06/19
Statistiques
La présente page de téléchargement a été vue 461 fois depuis l'envoi du fichier
Page de téléchargement

Aperçu du fichier


<?xml version="1.0" encoding="UTF-8" standalone="no"?>
<gpx xmlns="http://www.topografix.com/GPX/1/1" creator="Elektrobit Street Director (R)" version="1.1" xmlns:xsi="http://www.w3.org/2001/XMLSchema-instance" xsi:schemaLocation="http://www.topografix.com/GPX/1/1 http://www.topografix.com/GPX/1/1/gpx.xsd http://www.gpstrailmaps.com/map3d/map3d http://www.gpstrailmaps.com/map3d/map3d.xsd http://www.topografix.com/GPX/gpx_style/0/2 http://www.topografix.com/GPX/gpx_style/0/2/gpx_style.xsd">
<metadata>
<name>                                                                                                                               </name>
<desc>                                                                                                                               </desc>
<author>
<name>                                                                                                                               </name>
<email domain="                               " id="                               "/>
<link href="                                                                                                                               ">
<text>                                                                                                                               </text>
<type>text/html</type>
</link>
</author>
<copyright author="                                                                                                                               ">
<year>                               </year>
<license>                                                                                                                               </license>
</copyright>
<time>                               </time>
<bounds minlat="49.781234                      " minlon=" 4.876980                      " maxlat="50.558872                      " maxlon=" 5.308182                      "/>
</metadata>
<wpt lat="50.269573                      " lon=" 4.904594                      ">
<name>                               </name>
<cmt>                               </cmt>
<desc>                                                                                                                               </desc>
<sym>                               </sym>
</wpt>
<trk>
<name>                               </name>
<cmt>                               </cmt>
<desc>                                                                                                                               </desc>
<number>                               </number>
<trkseg>
<trkpt lat="50.269573" lon="4.904594">
<ele>92.200000</ele>
<time>2014-03-09T10:54:08Z</time>
</trkpt>
<trkpt lat="50.269505" lon="4.904649">
<ele>91.300000</ele>
<time>2014-03-09T10:54:10Z</time>
</trkpt>
<trkpt lat="50.269384" lon="4.904756">
<ele>91.100000</ele>
<time>2014-03-09T10:54:12Z</time>
</trkpt>
<trkpt lat="50.269294" lon="4.904831">
<ele>91.000000</ele>
<time>2014-03-09T10:54:13Z</time>
</trkpt>
<trkpt lat="50.269202" lon="4.904913">
<ele>90.900000</ele>
<time>2014-03-09T10:54:14Z</time>
</trkpt>
<trkpt lat="50.269108" lon="4.905001">
<ele>90.600000</ele>
<time>2014-03-09T10:54:15Z</time>
</trkpt>
<trkpt lat="50.269028" lon="4.905077">
<ele>90.400000</ele>
<time>2014-03-09T10:54:16Z</time>
</trkpt>
<trkpt lat="50.268943" lon="4.905154">
<ele>89.800000</ele>
<time>2014-03-09T10:54:17Z</time>
</trkpt>
<trkpt lat="50.268855" lon="4.905226">
<ele>90.100000</ele>
<time>2014-03-09T10:54:18Z</time>
</trkpt>
<trkpt lat="50.268760" lon="4.905311">
<ele>90.300000</ele>
<time>2014-03-09T10:54:19Z</time>
</trkpt>
<trkpt lat="50.268656" lon="4.905407">
<ele>90.300000</ele>
<time>2014-03-09T10:54:20Z</time>
</trkpt>
<trkpt lat="50.268532" lon="4.905515">
<ele>90.400000</ele>
<time>2014-03-09T10:54:21Z</time>
</trkpt>
<trkpt lat="50.268417" lon="4.905615">
<ele>90.200000</ele>
<time>2014-03-09T10:54:22Z</time>
</trkpt>
<trkpt lat="50.268299" lon="4.905713">
<ele>90.100000</ele>
<time>2014-03-09T10:54:23Z</time>
</trkpt>
<trkpt lat="50.268170" lon="4.905811">
<ele>90.100000</ele>
<time>2014-03-09T10:54:24Z</time>
</trkpt>
<trkpt lat="50.268033" lon="4.905908">
<ele>89.900000</ele>
<time>2014-03-09T10:54:25Z</time>
</trkpt>
<trkpt lat="50.267898" lon="4.906000">
<ele>89.800000</ele>
<time>2014-03-09T10:54:26Z</time>
</trkpt>
<trkpt lat="50.267753" lon="4.906100">
<ele>89.900000</ele>
<time>2014-03-09T10:54:27Z</time>
</trkpt>
<trkpt lat="50.267618" lon="4.906188">
<ele>89.800000</ele>
<time>2014-03-09T10:54:28Z</time>
</trkpt>
<trkpt lat="50.267508" lon="4.906261">
<ele>89.500000</ele>
<time>2014-03-09T10:54:29Z</time>
</trkpt>
<trkpt lat="50.267394" lon="4.906323">
<ele>89.200000</ele>
<time>2014-03-09T10:54:30Z</time>
</trkpt>
<trkpt lat="50.267274" lon="4.906380">
<ele>89.200000</ele>
<time>2014-03-09T10:54:31Z</time>
</trkpt>
<trkpt lat="50.267144" lon="4.906438">
<ele>89.000000</ele>
<time>2014-03-09T10:54:32Z</time>
</trkpt>
<trkpt lat="50.267019" lon="4.906498">
<ele>89.000000</ele>
<time>2014-03-09T10:54:33Z</time>
</trkpt>
<trkpt lat="50.266885" lon="4.906566">
<ele>89.000000</ele>
<time>2014-03-09T10:54:34Z</time>
</trkpt>
<trkpt lat="50.266758" lon="4.906626">
<ele>88.700000</ele>
<time>2014-03-09T10:54:35Z</time>
</trkpt>
<trkpt lat="50.266639" lon="4.906673">
<ele>89.100000</ele>
<time>2014-03-09T10:54:36Z</time>
</trkpt>
<trkpt lat="50.266528" lon="4.906722">
<ele>88.800000</ele>
<time>2014-03-09T10:54:37Z</time>
</trkpt>
<trkpt lat="50.266425" lon="4.906772">
<ele>89.100000</ele>
<time>2014-03-09T10:54:38Z</time>
</trkpt>
<trkpt lat="50.266320" lon="4.906821">
<ele>89.500000</ele>
<time>2014-03-09T10:54:39Z</time>
</trkpt>
<trkpt lat="50.266218" lon="4.906864">
<ele>89.800000</ele>
<time>2014-03-09T10:54:40Z</time>
</trkpt>
<trkpt lat="50.266114" lon="4.906908">
<ele>89.600000</ele>
<time>2014-03-09T10:54:41Z</time>
</trkpt>
<trkpt lat="50.266005" lon="4.906959">
<ele>89.800000</ele>
<time>2014-03-09T10:54:42Z</time>
</trkpt>
<trkpt lat="50.265857" lon="4.907023">
<ele>89.700000</ele>
<time>2014-03-09T10:54:43Z</time>
</trkpt>
<trkpt lat="50.265708" lon="4.907088">
<ele>89.700000</ele>
<time>2014-03-09T10:54:44Z</time>
</trkpt>
<trkpt lat="50.265527" lon="4.907163">
<ele>89.900000</ele>
<time>2014-03-09T10:54:45Z</time>
</trkpt>
<trkpt lat="50.265362" lon="4.907235">
<ele>89.800000</ele>
<time>2014-03-09T10:54:46Z</time>
</trkpt>
<trkpt lat="50.265195" lon="4.907307">
<ele>89.700000</ele>
<time>2014-03-09T10:54:47Z</time>
</trkpt>
<trkpt lat="50.265028" lon="4.907375">
<ele>89.500000</ele>
<time>2014-03-09T10:54:48Z</time>
</trkpt>
<trkpt lat="50.264865" lon="4.907448">
<ele>89.800000</ele>
<time>2014-03-09T10:54:49Z</time>
</trkpt>
<trkpt lat="50.264715" lon="4.907522">
<ele>89.900000</ele>
<time>2014-03-09T10:54:50Z</time>
</trkpt>
<trkpt lat="50.264560" lon="4.907606">
<ele>89.700000</ele>
<time>2014-03-09T10:54:51Z</time>
</trkpt>
<trkpt lat="50.264406" lon="4.907686">
<ele>89.500000</ele>
<time>2014-03-09T10:54:52Z</time>
</trkpt>
<trkpt lat="50.264252" lon="4.907763">
<ele>89.300000</ele>
<time>2014-03-09T10:54:53Z</time>
</trkpt>
<trkpt lat="50.264110" lon="4.907840">
<ele>89.200000</ele>
<time>2014-03-09T10:54:54Z</time>
</trkpt>
<trkpt lat="50.263972" lon="4.907916">
<ele>89.300000</ele>
<time>2014-03-09T10:54:55Z</time>
</trkpt>
<trkpt lat="50.263830" lon="4.907993">
<ele>89.500000</ele>
<time>2014-03-09T10:54:56Z</time>
</trkpt>
<trkpt lat="50.263691" lon="4.908074">
<ele>89.400000</ele>
<time>2014-03-09T10:54:57Z</time>
</trkpt>
<trkpt lat="50.263555" lon="4.908153">
<ele>89.500000</ele>
<time>2014-03-09T10:54:58Z</time>
</trkpt>
<trkpt lat="50.263428" lon="4.908249">
<ele>89.900000</ele>
<time>2014-03-09T10:54:59Z</time>
</trkpt>
<trkpt lat="50.263310" lon="4.908366">
<ele>89.700000</ele>
<time>2014-03-09T10:55:00Z</time>
</trkpt>
<trkpt lat="50.263199" lon="4.908469">
<ele>89.500000</ele>
<time>2014-03-09T10:55:01Z</time>
</trkpt>
<trkpt lat="50.263092" lon="4.908575">
<ele>89.400000</ele>
<time>2014-03-09T10:55:02Z</time>
</trkpt>
<trkpt lat="50.262983" lon="4.908682">
<ele>89.300000</ele>
<time>2014-03-09T10:55:03Z</time>
</trkpt>
<trkpt lat="50.262884" lon="4.908780">
<ele>89.000000</ele>
<time>2014-03-09T10:55:04Z</time>
</trkpt>
<trkpt lat="50.262795" lon="4.908874">
<ele>88.600000</ele>
<time>2014-03-09T10:55:05Z</time>
</trkpt>
<trkpt lat="50.262708" lon="4.908976">
<ele>88.200000</ele>
<time>2014-03-09T10:55:06Z</time>
</trkpt>
<trkpt lat="50.262635" lon="4.909066">
<ele>88.000000</ele>
<time>2014-03-09T10:55:07Z</time>
</trkpt>
<trkpt lat="50.262569" lon="4.909150">
<ele>87.800000</ele>
<time>2014-03-09T10:55:08Z</time>
</trkpt>
<trkpt lat="50.262497" lon="4.909233">
<ele>89.200000</ele>
<time>2014-03-09T10:55:09Z</time>
</trkpt>
<trkpt lat="50.262437" lon="4.909313">
<ele>90.200000</ele>
<time>2014-03-09T10:55:10Z</time>
</trkpt>
<trkpt lat="50.262386" lon="4.909395">
<ele>91.500000</ele>
<time>2014-03-09T10:55:11Z</time>
</trkpt>
<trkpt lat="50.262320" lon="4.909504">
<ele>93.700000</ele>
<time>2014-03-09T10:55:13Z</time>
</trkpt>
<trkpt lat="50.262273" lon="4.909607">
<ele>96.000000</ele>
<time>2014-03-09T10:55:15Z</time>
</trkpt>
<trkpt lat="50.262231" lon="4.909756">
<ele>98.000000</ele>
<time>2014-03-09T10:55:17Z</time>
</trkpt>
<trkpt lat="50.262158" lon="4.909854">
<ele>98.300000</ele>
<time>2014-03-09T10:55:19Z</time>
</trkpt>
<trkpt lat="50.262100" lon="4.909983">
<ele>95.800000</ele>
<time>2014-03-09T10:55:21Z</time>
</trkpt>
<trkpt lat="50.262021" lon="4.910120">
<ele>93.700000</ele>
<time>2014-03-09T10:55:23Z</time>
</trkpt>
<trkpt lat="50.261954" lon="4.910240">
<ele>93.700000</ele>
<time>2014-03-09T10:55:25Z</time>
</trkpt>
<trkpt lat="50.261894" lon="4.910336">
<ele>94.900000</ele>
<time>2014-03-09T10:55:27Z</time>
</trkpt>
<trkpt lat="50.261841" lon="4.910429">
<ele>95.900000</ele>
<time>2014-03-09T10:55:29Z</time>
</trkpt>
<trkpt lat="50.261776" lon="4.910525">
<ele>95.700000</ele>
<time>2014-03-09T10:55:31Z</time>
</trkpt>
<trkpt lat="50.261693" lon="4.910640">
<ele>95.400000</ele>
<time>2014-03-09T10:55:33Z</time>
</trkpt>
<trkpt lat="50.261623" lon="4.910765">
<ele>95.100000</ele>
<time>2014-03-09T10:55:35Z</time>
</trkpt>
<trkpt lat="50.261549" lon="4.910858">
<ele>95.200000</ele>
<time>2014-03-09T10:55:37Z</time>
</trkpt>
<trkpt lat="50.261487" lon="4.910968">
<ele>95.300000</ele>
<time>2014-03-09T10:55:39Z</time>
</trkpt>
<trkpt lat="50.261407" lon="4.911072">
<ele>94.600000</ele>
<time>2014-03-09T10:55:41Z</time>
</trkpt>
<trkpt lat="50.261358" lon="4.911137">
<ele>93.900000</ele>
<time>2014-03-09T10:55:42Z</time>
</trkpt>
<trkpt lat="50.261295" lon="4.911192">
<ele>93.400000</ele>
<time>2014-03-09T10:55:43Z</time>
</trkpt>
<trkpt lat="50.261207" lon="4.911350">
<ele>92.900000</ele>
<time>2014-03-09T10:55:45Z</time>
</trkpt>
<trkpt lat="50.261165" lon="4.911426">
<ele>92.600000</ele>
<time>2014-03-09T10:55:46Z</time>
</trkpt>
<trkpt lat="50.261087" lon="4.911544">
<ele>91.900000</ele>
<time>2014-03-09T10:55:48Z</time>
</trkpt>
<trkpt lat="50.261048" lon="4.911660">
<ele>91.300000</ele>
<time>2014-03-09T10:55:50Z</time>
</trkpt>
<trkpt lat="50.261008" lon="4.911766">
<ele>89.300000</ele>
<time>2014-03-09T10:55:52Z</time>
</trkpt>
<trkpt lat="50.260985" lon="4.911866">
<ele>85.200000</ele>
<time>2014-03-09T10:55:54Z</time>
</trkpt>
<trkpt lat="50.260913" lon="4.911906">
<ele>85.100000</ele>
<time>2014-03-09T10:55:56Z</time>
</trkpt>
<trkpt lat="50.260840" lon="4.911950">
<ele>85.900000</ele>
<time>2014-03-09T10:55:58Z</time>
</trkpt>
<trkpt lat="50.260748" lon="4.911991">
<ele>87.200000</ele>
<time>2014-03-09T10:56:00Z</time>
</trkpt>
<trkpt lat="50.260645" lon="4.912052">
<ele>87.800000</ele>
<time>2014-03-09T10:56:02Z</time>
</trkpt>
<trkpt lat="50.260578" lon="4.912103">
<ele>85.300000</ele>
<time>2014-03-09T10:56:03Z</time>
</trkpt>
<trkpt lat="50.260520" lon="4.912154">
<ele>81.600000</ele>
<time>2014-03-09T10:56:04Z</time>
</trkpt>
<trkpt lat="50.260425" lon="4.912175">
<ele>82.800000</ele>
<time>2014-03-09T10:56:05Z</time>
</trkpt>
<trkpt lat="50.260361" lon="4.912188">
<ele>81.800000</ele>
<time>2014-03-09T10:56:06Z</time>
</trkpt>
<trkpt lat="50.260280" lon="4.912204">
<ele>83.100000</ele>
<time>2014-03-09T10:56:08Z</time>
</trkpt>
<trkpt lat="50.260224" lon="4.912216">
<ele>84.200000</ele>
<time>2014-03-09T10:56:10Z</time>
</trkpt>
<trkpt lat="50.260169" lon="4.912227">
<ele>85.500000</ele>
<time>2014-03-09T10:56:12Z</time>
</trkpt>
<trkpt lat="50.260102" lon="4.912245">
<ele>84.900000</ele>
<time>2014-03-09T10:56:14Z</time>
</trkpt>
<trkpt lat="50.259993" lon="4.912279">
<ele>84.600000</ele>
<time>2014-03-09T10:56:16Z</time>
</trkpt>
<trkpt lat="50.259927" lon="4.912302">
<ele>84.700000</ele>
<time>2014-03-09T10:56:17Z</time>
</trkpt>
<trkpt lat="50.259866" lon="4.912324">
<ele>85.000000</ele>
<time>2014-03-09T10:56:18Z</time>
</trkpt>
<trkpt lat="50.259789" lon="4.912351">
<ele>85.200000</ele>
<time>2014-03-09T10:56:19Z</time>
</trkpt>
<trkpt lat="50.259706" lon="4.912379">
<ele>85.300000</ele>
<time>2014-03-09T10:56:20Z</time>
</trkpt>
<trkpt lat="50.259628" lon="4.912405">
<ele>85.000000</ele>
<time>2014-03-09T10:56:21Z</time>
</trkpt>
<trkpt lat="50.259548" lon="4.912433">
<ele>84.800000</ele>
<time>2014-03-09T10:56:22Z</time>
</trkpt>
<trkpt lat="50.259464" lon="4.912464">
<ele>84.700000</ele>
<time>2014-03-09T10:56:23Z</time>
</trkpt>
<trkpt lat="50.259384" lon="4.912488">
<ele>84.700000</ele>
<time>2014-03-09T10:56:24Z</time>
</trkpt>
<trkpt lat="50.259303" lon="4.912513">
<ele>84.500000</ele>
<time>2014-03-09T10:56:25Z</time>
</trkpt>
<trkpt lat="50.259224" lon="4.912538">
<ele>84.300000</ele>
<time>2014-03-09T10:56:26Z</time>
</trkpt>
<trkpt lat="50.259165" lon="4.912560">
<ele>83.800000</ele>
<time>2014-03-09T10:56:27Z</time>
</trkpt>
<trkpt lat="50.259094" lon="4.912613">
<ele>83.700000</ele>
<time>2014-03-09T10:56:28Z</time>
</trkpt>
<trkpt lat="50.259027" lon="4.912647">
<ele>83.300000</ele>
<time>2014-03-09T10:56:29Z</time>
</trkpt>
<trkpt lat="50.258964" lon="4.912676">
<ele>83.300000</ele>
<time>2014-03-09T10:56:30Z</time>
</trkpt>
<trkpt lat="50.258901" lon="4.912693">
<ele>83.700000</ele>
<time>2014-03-09T10:56:31Z</time>
</trkpt>
<trkpt lat="50.258821" lon="4.912671">
<ele>83.900000</ele>
<time>2014-03-09T10:56:33Z</time>
</trkpt>
<trkpt lat="50.258753" lon="4.912702">
<ele>83.800000</ele>
<time>2014-03-09T10:56:35Z</time>
</trkpt>
<trkpt lat="50.258674" lon="4.912717">
<ele>84.100000</ele>
<time>2014-03-09T10:56:37Z</time>
</trkpt>
<trkpt lat="50.258595" lon="4.912740">
<ele>84.100000</ele>
<time>2014-03-09T10:56:39Z</time>
</trkpt>
<trkpt lat="50.258480" lon="4.912778">
<ele>84.600000</ele>
<time>2014-03-09T10:56:41Z</time>
</trkpt>
<trkpt lat="50.258393" lon="4.912825">
<ele>85.100000</ele>
<time>2014-03-09T10:56:42Z</time>
</trkpt>
<trkpt lat="50.258312" lon="4.912863">
<ele>85.700000</ele>
<time>2014-03-09T10:56:43Z</time>
</trkpt>
<trkpt lat="50.258220" lon="4.912906">
<ele>85.600000</ele>
<time>2014-03-09T10:56:44Z</time>
</trkpt>
<trkpt lat="50.258145" lon="4.912944">
<ele>85.500000</ele>
<time>2014-03-09T10:56:45Z</time>
</trkpt>
<trkpt lat="50.258064" lon="4.912986">
<ele>85.300000</ele>
<time>2014-03-09T10:56:46Z</time>
</trkpt>
<trkpt lat="50.257970" lon="4.913026">
<ele>84.800000</ele>
<time>2014-03-09T10:56:47Z</time>
</trkpt>
<trkpt lat="50.257871" lon="4.913068">
<ele>84.800000</ele>
<time>2014-03-09T10:56:48Z</time>
</trkpt>
<trkpt lat="50.257777" lon="4.913107">
<ele>84.600000</ele>
<time>2014-03-09T10:56:49Z</time>
</trkpt>
<trkpt lat="50.257696" lon="4.913142">
<ele>84.200000</ele>
<time>2014-03-09T10:56:50Z</time>
</trkpt>
<trkpt lat="50.257613" lon="4.913188">
<ele>84.000000</ele>
<time>2014-03-09T10:56:51Z</time>
</trkpt>
<trkpt lat="50.257535" lon="4.913236">
<ele>84.000000</ele>
<time>2014-03-09T10:56:52Z</time>
</trkpt>
<trkpt lat="50.257444" lon="4.913282">
<ele>84.500000</ele>
<time>2014-03-09T10:56:54Z</time>
</trkpt>
<trkpt lat="50.257360" lon="4.913289">
<ele>85.900000</ele>
<time>2014-03-09T10:56:56Z</time>
</trkpt>
<trkpt lat="50.257266" lon="4.913307">
<ele>86.500000</ele>
<time>2014-03-09T10:56:58Z</time>
</trkpt>
<trkpt lat="50.257202" lon="4.913325">
<ele>86.700000</ele>
<time>2014-03-09T10:56:59Z</time>
</trkpt>
<trkpt lat="50.257145" lon="4.913342">
<ele>86.700000</ele>
<time>2014-03-09T10:57:00Z</time>
</trkpt>
<trkpt lat="50.257018" lon="4.913349">
<ele>86.800000</ele>
<time>2014-03-09T10:57:02Z</time>
</trkpt>
<trkpt lat="50.256939" lon="4.913351">
<ele>86.400000</ele>
<time>2014-03-09T10:57:03Z</time>
</trkpt>
<trkpt lat="50.256875" lon="4.913361">
<ele>86.500000</ele>
<time>2014-03-09T10:57:04Z</time>
</trkpt>
<trkpt lat="50.256807" lon="4.913381">
<ele>86.800000</ele>
<time>2014-03-09T10:57:05Z</time>
</trkpt>
<trkpt lat="50.256728" lon="4.913405">
<ele>87.000000</ele>
<time>2014-03-09T10:57:06Z</time>
</trkpt>
<trkpt lat="50.256648" lon="4.913401">
<ele>88.200000</ele>
<time>2014-03-09T10:57:07Z</time>
</trkpt>
<trkpt lat="50.256564" lon="4.913428">
<ele>88.200000</ele>
<time>2014-03-09T10:57:08Z</time>
</trkpt>
<trkpt lat="50.256490" lon="4.913463">
<ele>88.200000</ele>
<time>2014-03-09T10:57:09Z</time>
</trkpt>
<trkpt lat="50.256415" lon="4.913503">
<ele>88.900000</ele>
<time>2014-03-09T10:57:10Z</time>
</trkpt>
<trkpt lat="50.256344" lon="4.913533">
<ele>89.000000</ele>
<time>2014-03-09T10:57:11Z</time>
</trkpt>
<trkpt lat="50.256276" lon="4.913568">
<ele>88.900000</ele>
<time>2014-03-09T10:57:12Z</time>
</trkpt>
<trkpt lat="50.256211" lon="4.913626">
<ele>89.600000</ele>
<time>2014-03-09T10:57:13Z</time>
</trkpt>
<trkpt lat="50.256151" lon="4.913712">
<ele>90.200000</ele>
<time>2014-03-09T10:57:14Z</time>
</trkpt>
<trkpt lat="50.256097" lon="4.913791">
<ele>90.700000</ele>
<time>2014-03-09T10:57:15Z</time>
</trkpt>
<trkpt lat="50.256042" lon="4.913897">
<ele>91.500000</ele>
<time>2014-03-09T10:57:16Z</time>
</trkpt>
<trkpt lat="50.255982" lon="4.914008">
<ele>92.400000</ele>
<time>2014-03-09T10:57:17Z</time>
</trkpt>
<trkpt lat="50.255916" lon="4.914153">
<ele>93.300000</ele>
<time>2014-03-09T10:57:18Z</time>
</trkpt>
<trkpt lat="50.255854" lon="4.914261">
<ele>94.200000</ele>
<time>2014-03-09T10:57:19Z</time>
</trkpt>
<trkpt lat="50.255796" lon="4.914358">
<ele>94.600000</ele>
<time>2014-03-09T10:57:20Z</time>
</trkpt>
<trkpt lat="50.255744" lon="4.914455">
<ele>95.200000</ele>
<time>2014-03-09T10:57:21Z</time>
</trkpt>
<trkpt lat="50.255716" lon="4.914584">
<ele>96.100000</ele>
<time>2014-03-09T10:57:22Z</time>
</trkpt>
<trkpt lat="50.255670" lon="4.914695">
<ele>96.400000</ele>
<time>2014-03-09T10:57:23Z</time>
</trkpt>
<trkpt lat="50.255610" lon="4.914788">
<ele>96.700000</ele>
<time>2014-03-09T10:57:24Z</time>
</trkpt>
<trkpt lat="50.255545" lon="4.914873">
<ele>97.000000</ele>
<time>2014-03-09T10:57:25Z</time>
</trkpt>
<trkpt lat="50.255483" lon="4.914936">
<ele>97.300000</ele>
<time>2014-03-09T10:57:26Z</time>
</trkpt>
<trkpt lat="50.255430" lon="4.914989">
<ele>97.800000</ele>
<time>2014-03-09T10:57:27Z</time>
</trkpt>
<trkpt lat="50.255355" lon="4.915038">
<ele>98.500000</ele>
<time>2014-03-09T10:57:28Z</time>
</trkpt>
<trkpt lat="50.255295" lon="4.915051">
<ele>97.600000</ele>
<time>2014-03-09T10:57:29Z</time>
</trkpt>
<trkpt lat="50.255223" lon="4.915050">
<ele>98.000000</ele>
<time>2014-03-09T10:57:30Z</time>
</trkpt>
<trkpt lat="50.255111" lon="4.915030">
<ele>97.300000</ele>
<time>2014-03-09T10:57:31Z</time>
</trkpt>
<trkpt lat="50.255024" lon="4.915049">
<ele>96.800000</ele>
<time>2014-03-09T10:57:32Z</time>
</trkpt>
<trkpt lat="50.254939" lon="4.915055">
<ele>96.400000</ele>
<time>2014-03-09T10:57:33Z</time>
</trkpt>
<trkpt lat="50.254874" lon="4.915075">
<ele>94.600000</ele>
<time>2014-03-09T10:57:34Z</time>
</trkpt>
<trkpt lat="50.254791" lon="4.915118">
<ele>95.100000</ele>
<time>2014-03-09T10:57:35Z</time>
</trkpt>
<trkpt lat="50.254713" lon="4.915130">
<ele>95.000000</ele>
<time>2014-03-09T10:57:36Z</time>
</trkpt>
<trkpt lat="50.254644" lon="4.915171">
<ele>93.600000</ele>
<time>2014-03-09T10:57:37Z</time>
</trkpt>
<trkpt lat="50.254563" lon="4.915209">
<ele>92.800000</ele>
<time>2014-03-09T10:57:38Z</time>
</trkpt>
<trkpt lat="50.254480" lon="4.915258">
<ele>93.100000</ele>
<time>2014-03-09T10:57:39Z</time>
</trkpt>
<trkpt lat="50.254388" lon="4.915312">
<ele>93.200000</ele>
<time>2014-03-09T10:57:40Z</time>
</trkpt>
<trkpt lat="50.254296" lon="4.915374">
<ele>92.900000</ele>
<time>2014-03-09T10:57:41Z</time>
</trkpt>
<trkpt lat="50.254199" lon="4.915438">
<ele>92.600000</ele>
<time>2014-03-09T10:57:42Z</time>
</trkpt>
<trkpt lat="50.254111" lon="4.915496">
<ele>91.400000</ele>
<time>2014-03-09T10:57:43Z</time>
</trkpt>
<trkpt lat="50.254035" lon="4.915560">
<ele>91.000000</ele>
<time>2014-03-09T10:57:44Z</time>
</trkpt>
<trkpt lat="50.253946" lon="4.915647">
<ele>90.500000</ele>
<time>2014-03-09T10:57:45Z</time>
</trkpt>
<trkpt lat="50.253857" lon="4.915719">
<ele>90.500000</ele>
<time>2014-03-09T10:57:46Z</time>
</trkpt>
<trkpt lat="50.253770" lon="4.915823">
<ele>90.900000</ele>
<time>2014-03-09T10:57:47Z</time>
</trkpt>
<trkpt lat="50.253705" lon="4.915915">
<ele>91.100000</ele>
<time>2014-03-09T10:57:48Z</time>
</trkpt>
<trkpt lat="50.253645" lon="4.915999">
<ele>92.500000</ele>
<time>2014-03-09T10:57:49Z</time>
</trkpt>
<trkpt lat="50.253587" lon="4.916093">
<ele>92.700000</ele>
<time>2014-03-09T10:57:50Z</time>
</trkpt>
<trkpt lat="50.253510" lon="4.916187">
<ele>92.700000</ele>
<time>2014-03-09T10:57:51Z</time>
</trkpt>
<trkpt lat="50.253423" lon="4.916272">
<ele>92.600000</ele>
<time>2014-03-09T10:57:52Z</time>
</trkpt>
<trkpt lat="50.253343" lon="4.916348">
<ele>92.700000</ele>
<time>2014-03-09T10:57:53Z</time>
</trkpt>
<trkpt lat="50.253253" lon="4.916410">
<ele>93.200000</ele>
<time>2014-03-09T10:57:54Z</time>
</trkpt>
<trkpt lat="50.253146" lon="4.916475">
<ele>93.300000</ele>
<time>2014-03-09T10:57:55Z</time>
</trkpt>
<trkpt lat="50.253015" lon="4.916541">
<ele>93.100000</ele>
<time>2014-03-09T10:57:56Z</time>
</trkpt>
<trkpt lat="50.252872" lon="4.916607">
<ele>93.500000</ele>
<time>2014-03-09T10:57:57Z</time>
</trkpt>
<trkpt lat="50.252744" lon="4.916682">
<ele>93.400000</ele>
<time>2014-03-09T10:57:58Z</time>
</trkpt>
<trkpt lat="50.252603" lon="4.916766">
<ele>93.000000</ele>
<time>2014-03-09T10:57:59Z</time>
</trkpt>
<trkpt lat="50.252470" lon="4.916850">
<ele>92.400000</ele>
<time>2014-03-09T10:58:00Z</time>
</trkpt>
<trkpt lat="50.252331" lon="4.916943">
<ele>92.200000</ele>
<time>2014-03-09T10:58:01Z</time>
</trkpt>
<trkpt lat="50.252193" lon="4.917045">
<ele>92.000000</ele>
<time>2014-03-09T10:58:02Z</time>
</trkpt>
<trkpt lat="50.252056" lon="4.917144">
<ele>91.800000</ele>
<time>2014-03-09T10:58:03Z</time>
</trkpt>
<trkpt lat="50.251924" lon="4.917237">
<ele>91.400000</ele>
<time>2014-03-09T10:58:04Z</time>
</trkpt>
<trkpt lat="50.251807" lon="4.917321">
<ele>90.900000</ele>
<time>2014-03-09T10:58:05Z</time>
</trkpt>
<trkpt lat="50.251688" lon="4.917411">
<ele>90.700000</ele>
<time>2014-03-09T10:58:06Z</time>
</trkpt>
<trkpt lat="50.251571" lon="4.917506">
<ele>90.600000</ele>
<time>2014-03-09T10:58:07Z</time>
</trkpt>
<trkpt lat="50.251460" lon="4.917611">
<ele>89.100000</ele>
<time>2014-03-09T10:58:08Z</time>
</trkpt>
<trkpt lat="50.251349" lon="4.917722">
<ele>87.700000</ele>
<time>2014-03-09T10:58:09Z</time>
</trkpt>
<trkpt lat="50.251249" lon="4.917833">
<ele>86.600000</ele>
<time>2014-03-09T10:58:10Z</time>
</trkpt>
<trkpt lat="50.251144" lon="4.917945">
<ele>86.500000</ele>
<time>2014-03-09T10:58:11Z</time>
</trkpt>
<trkpt lat="50.251036" lon="4.918053">
<ele>86.400000</ele>
<time>2014-03-09T10:58:12Z</time>
</trkpt>
<trkpt lat="50.250939" lon="4.918154">
<ele>86.400000</ele>
<time>2014-03-09T10:58:13Z</time>
</trkpt>
<trkpt lat="50.250834" lon="4.918263">
<ele>86.400000</ele>
<time>2014-03-09T10:58:14Z</time>
</trkpt>
<trkpt lat="50.250725" lon="4.918383">
<ele>86.400000</ele>
<time>2014-03-09T10:58:15Z</time>
</trkpt>
<trkpt lat="50.250626" lon="4.918507">
<ele>87.000000</ele>
<time>2014-03-09T10:58:16Z</time>
</trkpt>
<trkpt lat="50.250517" lon="4.918620">
<ele>87.100000</ele>
<time>2014-03-09T10:58:17Z</time>
</trkpt>
<trkpt lat="50.250397" lon="4.918737">
<ele>87.300000</ele>
<time>2014-03-09T10:58:18Z</time>
</trkpt>
<trkpt lat="50.250280" lon="4.918842">
<ele>87.500000</ele>
<time>2014-03-09T10:58:19Z</time>
</trkpt>
<trkpt lat="50.250156" lon="4.918937">
<ele>87.300000</ele>
<time>2014-03-09T10:58:20Z</time>
</trkpt>
<trkpt lat="50.250026" lon="4.919022">
<ele>87.200000</ele>
<time>2014-03-09T10:58:21Z</time>
</trkpt>
<trkpt lat="50.249890" lon="4.919122">
<ele>87.200000</ele>
<time>2014-03-09T10:58:22Z</time>
</trkpt>
<trkpt lat="50.249764" lon="4.919218">
<ele>87.300000</ele>
<time>2014-03-09T10:58:23Z</time>
</trkpt>
<trkpt lat="50.249640" lon="4.919325">
<ele>87.400000</ele>
<time>2014-03-09T10:58:24Z</time>
</trkpt>
<trkpt lat="50.249522" lon="4.919448">
<ele>87.800000</ele>
<time>2014-03-09T10:58:25Z</time>
</trkpt>
<trkpt lat="50.249402" lon="4.919584">
<ele>87.900000</ele>
<time>2014-03-09T10:58:26Z</time>
</trkpt>
<trkpt lat="50.249271" lon="4.919731">
<ele>88.300000</ele>
<time>2014-03-09T10:58:27Z</time>
</trkpt>
<trkpt lat="50.249149" lon="4.919876">
<ele>89.300000</ele>
<time>2014-03-09T10:58:28Z</time>
</trkpt>
<trkpt lat="50.249033" lon="4.920017">
<ele>90.000000</ele>
<time>2014-03-09T10:58:29Z</time>
</trkpt>
<trkpt lat="50.248913" lon="4.920154">
<ele>90.500000</ele>
<time>2014-03-09T10:58:30Z</time>
</trkpt>
<trkpt lat="50.248792" lon="4.920285">
<ele>90.800000</ele>
<time>2014-03-09T10:58:31Z</time>
</trkpt>
<trkpt lat="50.248677" lon="4.920416">
<ele>90.800000</ele>
<time>2014-03-09T10:58:32Z</time>
</trkpt>
<trkpt lat="50.248554" lon="4.920525">
<ele>91.900000</ele>
<time>2014-03-09T10:58:33Z</time>
</trkpt>
<trkpt lat="50.248444" lon="4.920625">
<ele>93.200000</ele>
<time>2014-03-09T10:58:34Z</time>
</trkpt>
<trkpt lat="50.248322" lon="4.920721">
<ele>93.200000</ele>
<time>2014-03-09T10:58:35Z</time>
</trkpt>
<trkpt lat="50.248198" lon="4.920796">
<ele>95.700000</ele>
<time>2014-03-09T10:58:36Z</time>
</trkpt>
<trkpt lat="50.248069" lon="4.920855">
<ele>96.100000</ele>
<time>2014-03-09T10:58:37Z</time>
</trkpt>
<trkpt lat="50.247920" lon="4.920897">
<ele>97.200000</ele>
<time>2014-03-09T10:58:38Z</time>
</trkpt>
<trkpt lat="50.247773" lon="4.920947">
<ele>97.400000</ele>
<time>2014-03-09T10:58:39Z</time>
</trkpt>
<trkpt lat="50.247616" lon="4.921006">
<ele>97.200000</ele>
<time>2014-03-09T10:58:40Z</time>
</trkpt>
<trkpt lat="50.247460" lon="4.921064">
<ele>96.400000</ele>
<time>2014-03-09T10:58:41Z</time>
</trkpt>
<trkpt lat="50.247310" lon="4.921134">
<ele>96.500000</ele>
<time>2014-03-09T10:58:42Z</time>
</trkpt>
<trkpt lat="50.247169" lon="4.921189">
<ele>96.600000</ele>
<time>2014-03-09T10:58:43Z</time>
</trkpt>
<trkpt lat="50.247024" lon="4.921238">
<ele>96.300000</ele>
<time>2014-03-09T10:58:44Z</time>
</trkpt>
<trkpt lat="50.246885" lon="4.921274">
<ele>95.400000</ele>
<time>2014-03-09T10:58:45Z</time>
</trkpt>
<trkpt lat="50.246745" lon="4.921285">
<ele>93.300000</ele>
<time>2014-03-09T10:58:46Z</time>
</trkpt>
<trkpt lat="50.246594" lon="4.921279">
<ele>93.000000</ele>
<time>2014-03-09T10:58:47Z</time>
</trkpt>
<trkpt lat="50.246408" lon="4.921259">
<ele>93.300000</ele>
<time>2014-03-09T10:58:48Z</time>
</trkpt>
<trkpt lat="50.246245" lon="4.921252">
<ele>92.600000</ele>
<time>2014-03-09T10:58:49Z</time>
</trkpt>


Partager le fichier


Télécharger A_20140309_114643_MDB.gpx


Télécharger A_20140309_114643_MDB.gpx